• Join FlightAware (Why Join?)
  • Login
  • US Flag 
06:21AM EDT


 

Airport Tracker/Info


-or-


 

Live Flight TrackerFlight Track Log ✈ DAL268 ✈ 04-Jun-2013 ✈ KJFK - LLBG / TLV

Flight Track Log - Related Links

Times and Time Zones

All times are in EDT time to prevent confusion due to time zone crossing. See the DAL268 flight status page for this flight to view local times or setup timezone preferences in your user account.

Time Position Orientation Groundspeed Altitude Reporting Facility
EDT Latitude Longitude Course Direction KTS MPH feet Rate Location/Type
11:31PM 40.6560 -73.7900 North 9 10  Level FlightAware
11:32PM 40.6560 -73.7890 90° East 10 12  Level FlightAware
11:33PM 40.6550 -73.7890 180° South 12 14  Level FlightAware
11:34PM 40.6550 -73.7870 90° East 10 12  Level FlightAware
11:35PM 40.6540 -73.7870 180° South 13 15  Level FlightAware
11:36PM 40.6530 -73.7870 180° South 14 16  Level FlightAware
11:36PM 40.6520 -73.7870 180° South 14 16  Level FlightAware
11:37PM 40.6510 -73.7860 143° Southeast 14 16  Level FlightAware
11:38PM 40.6500 -73.7860 180° South 11 13  Level FlightAware
11:39PM 40.6490 -73.7860 180° South 12 14  Level FlightAware
11:40PM 40.6480 -73.7860 180° South 12 14  Level FlightAware
11:41PM 40.6470 -73.7860 180° South 12 14 60 Level FlightAware
11:42PM 40.6460 -73.7860 180° South 12 14 60 Level FlightAware
11:43PM 40.6450 -73.7850 143° Southeast 23 26 60 Level FlightAware
11:43PM 40.6440 -73.7850 180° South 26 30 60 Level FlightAware
11:43PM 40.6430 -73.7850 180° South 26 30 60 Level FlightAware
11:44PM 40.6420 -73.7860 217° Southwest 31 36 60 Level FlightAware
11:44PM 40.6400 -73.7860 180° South 16 18 60 Level FlightAware
11:45PM 40.6390 -73.7860 180° South 15 17 120 Level FlightAware
11:45PM 40.6380 -73.7870 217° Southwest 17 20 120 Level FlightAware
11:45PM 40.6370 -73.7870 180° South 17 20 120 Level FlightAware
11:46PM 40.6340 -73.7890 207° Southwest 19 22 120 Level FlightAware
11:46PM 40.6320 -73.7900 201° Southwest 16 18 120 Level FlightAware
11:46PM 40.6310 -73.7910 217° Southwest 17 20 180 Level FlightAware
11:47PM 40.6290 -73.7920 201° Southwest 34 39 180 Level FlightAware
11:47PM 40.6270 -73.7930 201° Southwest 31 36 240 Level FlightAware
11:48PM 40.6260 -73.7920 143° Southeast 28 32 300 Level FlightAware
11:48PM 40.6320 -73.7860 37° Northeast 100 115 360 Level FlightAware
11:49PM 40.6400 -73.7800 30° Northeast 155 178 780 Level FlightAware
11:49PM 40.6590 -73.7640 33° Northeast 172 198 600 1,500 Climbing FlightAware
11:49PM 40.6660 -73.7560 41° Northeast 177 204 1,000 1,800 Climbing FlightAware
11:49PM 40.6700 -73.7440 66° East 196 226 1,300 1,320 Climbing FlightAware
11:50PM 40.6710 -73.7240 86° East 219 252 1,600 1,080 Climbing FlightAware
11:50PM 40.6700 -73.7010 93° East 236 272 1,900 1,080 Climbing FlightAware
11:50PM 40.6660 -73.6590 97° East 263 303 2,400 960 Climbing FlightAware
11:51PM 40.6570 -73.6380 119° Southeast 283 326 2,600 1,080 Climbing FlightAware
11:51PM 40.6470 -73.6220 129° Southeast 291 335 2,900 1,740 Climbing FlightAware
11:51PM 40.6220 -73.5830 130° Southeast 300 345 3,800 2,160 Climbing FlightAware
11:52PM 40.6130 -73.5680 128° Southeast 299 344 4,300 2,700 Climbing FlightAware
11:52PM 40.5858 -73.5211 127° Southeast 303 349 5,700 2,580 Climbing FlightAware ADS-B
11:52PM 40.5780 -73.5076 127° Southeast 303 349 6,100 1,980 Climbing FlightAware ADS-B
11:53PM 40.5661 -73.4842 124° Southeast 309 356 6,500 1,920 Climbing FlightAware ADS-B
11:53PM 40.5571 -73.4638 120° Southeast 311 358 7,000 2,340 Climbing FlightAware ADS-B
11:53PM 40.5472 -73.4381 117° Southeast 312 359 7,600 2,160 Climbing FlightAware ADS-B
11:53PM 40.5377 -73.4121 116° Southeast 317 365 8,100 1,920 Climbing FlightAware ADS-B
11:53PM 40.5272 -73.3835 116° Southeast 323 372 8,600 1,980 Climbing FlightAware ADS-B
11:54PM 40.5163 -73.3538 116° Southeast 325 374 9,200 2,160 Climbing FlightAware ADS-B
11:54PM 40.5059 -73.3258 116° Southeast 326 375 9,800 2,100 Climbing FlightAware ADS-B
11:54PM 40.4925 -73.2878 115° Southeast 334 384 10,500 1,200 Climbing FlightAware ADS-B
11:55PM 40.4859 -73.2614 108° East 349 402 10,500 240 Level FlightAware ADS-B
11:55PM 40.4832 -73.2452 102° East 356 410 10,600 900 Climbing FlightAware ADS-B
11:55PM 40.4821 -73.2199 93° East 360 414 10,800 1,380 Climbing FlightAware ADS-B
11:55PM 40.4829 -73.2068 85° East 361 415 11,000 1,140 Climbing FlightAware ADS-B
11:55PM 40.4885 -73.1742 77° East 371 427 11,200 840 Climbing FlightAware ADS-B
11:55PM 40.4921 -73.1615 70° East 376 433 11,300 840 Climbing FlightAware ADS-B
11:56PM 40.5109 -73.1178 60° Northeast 390 449 11,600 1,080 Climbing FlightAware ADS-B
11:56PM 40.5349 -73.0779 52° Northeast 401 461 12,100 1,680 Climbing FlightAware ADS-B
11:56PM 40.5619 -73.0411 46° Northeast 407 468 12,800 1,860 Climbing FlightAware ADS-B
11:57PM 40.5913 -73.0061 42° Northeast 416 479 13,400 2,040 Climbing FlightAware ADS-B
11:57PM 40.6228 -72.9616 47° Northeast 425 489 14,300 2,160 Climbing FlightAware ADS-B
11:58PM 40.6469 -72.9210 52° Northeast 429 494 15,000 2,160 Climbing FlightAware ADS-B
11:58PM 40.6823 -72.8557 54° Northeast 436 502 16,100 2,040 Climbing FlightAware ADS-B
11:59PM 40.7180 -72.7878 55° Northeast 446 513 17,100 1,860 Climbing FlightAware ADS-B
11:59PM 40.7536 -72.7193 56° Northeast 453 521 18,000 1,860 Climbing FlightAware ADS-B
12:00AM 40.7901 -72.6488 56° Northeast 459 528 19,000 1,800 Climbing FlightAware ADS-B
12:00AM 40.8273 -72.5775 55° Northeast 465 535 19,900 1,740 Climbing FlightAware ADS-B
12:01AM 40.8653 -72.5043 56° Northeast 472 543 20,800 1,500 Climbing FlightAware ADS-B
12:01AM 40.9055 -72.4274 55° Northeast 482 555 21,500 1,320 Climbing FlightAware ADS-B
12:02AM 40.9460 -72.3497 55° Northeast 491 565 22,200 1,380 Climbing FlightAware ADS-B
12:02AM 40.9872 -72.2703 55° Northeast 499 574 23,000 1,440 Climbing FlightAware ADS-B
12:03AM 41.0358 -72.1762 56° Northeast 504 580 23,900 1,320 Climbing FlightAware ADS-B
12:03AM 41.0758 -72.0986 56° Northeast 512 589 24,500 1,200 Climbing FlightAware ADS-B
12:04AM 41.1183 -72.0159 56° Northeast 519 597 25,200 1,320 Climbing FlightAware ADS-B
12:04AM 41.1690 -71.9170 56° Northeast 523 602 26,100 1,260 Climbing FlightAware
12:05AM 41.2070 -71.8430 56° Northeast 530 610 26,900 1,200 Climbing FlightAware
12:06AM 41.2870 -71.6860 56° Northeast 539 620 27,800 1,080 Climbing FlightAware
12:07AM 41.3440 -71.5750 56° Northeast 543 625 28,500 1,200 Climbing FlightAware
12:07AM 41.4070 -71.4500 56° Northeast 545 627 29,500 1,320 Climbing FlightAware
12:08AM 41.4570 -71.3520 56° Northeast 544 626 30,300 1,260 Climbing FlightAware
12:09AM 41.5270 -71.2140 56° Northeast 543 625 31,300 1,200 Climbing FlightAware
12:09AM 41.5820 -71.1040 56° Northeast 543 625 32,100 1,020 Climbing FlightAware
12:10AM 41.6310 -71.0060 56° Northeast 544 626 32,600 540 Climbing FlightAware
12:11AM 41.7170 -70.8350 56° Northeast 545 627 33,000 180 Climbing FlightAware
12:12AM 41.7730 -70.7230 56° Northeast 542 624 33,000  Level FlightAware
12:12AM 41.8270 -70.6140 56° Northeast 539 620 33,000  Level FlightAware
12:13AM 41.8920 -70.4820 56° Northeast 537 618 33,000  Level FlightAware
12:14AM 41.9430 -70.3780 57° Northeast 537 618 33,000  Level FlightAware
12:14AM 42.0010 -70.2600 56° Northeast 533 613 33,000  Level FlightAware
12:15AM 42.0860 -70.0870 56° Northeast 533 613 33,000  Level FlightAware
12:16AM 42.1370 -69.9820 57° Northeast 533 613 33,000  Level FlightAware
12:17AM 42.1930 -69.8670 57° Northeast 532 612 33,000  Level FlightAware
12:18AM 42.2560 -69.7390 56° Northeast 536 617 33,000  Level FlightAware
12:18AM 42.3090 -69.6290 57° Northeast 533 613 33,000  Level FlightAware
12:19AM 42.3640 -69.5140 57° Northeast 532 612 33,000  Level FlightAware
12:20AM 42.4230 -69.3900 57° Northeast 532 612 33,000  Level FlightAware
12:21AM 42.4960 -69.2370 57° Northeast 532 612 33,000  Level FlightAware
12:21AM 42.5540 -69.1150 57° Northeast 532 612 33,000  Level FlightAware
12:22AM 42.6080 -69.0010 57° Northeast 532 612 33,000  Level FlightAware
12:23AM 42.6640 -68.8840 57° Northeast 532 612 33,000  Level FlightAware
12:23AM 42.7140 -68.7780 57° Northeast 533 613 33,000  Level FlightAware
12:24AM 42.7760 -68.6460 57° Northeast 534 615 33,000  Level FlightAware
12:25AM 42.8320 -68.5290 57° Northeast 536 617 33,000  Level FlightAware
12:25AM 42.8910 -68.4020 58° Northeast 536 617 33,000  Level FlightAware
12:26AM 42.9650 -68.2430 58° Northeast 537 618 33,000  Level FlightAware
12:27AM 43.0190 -68.1260 58° Northeast 538 619 33,000  Level FlightAware
12:28AM 43.0660 -68.0280 57° Northeast 538 619 33,000  Level FlightAware
12:28AM 43.1070 -67.9400 57° Northeast 538 619 33,000  Level FlightAware
12:29AM 43.1850 -67.7650 59° Northeast 534 615 33,000  Level FlightAware
12:30AM 43.2440 -67.6330 58° Northeast 536 617 33,000  Level FlightAware
12:31AM 43.2960 -67.5180 58° Northeast 536 617 33,000  Level FlightAware
12:31AM 43.3540 -67.3880 58° Northeast 535 616 33,000  Level FlightAware
12:32AM 43.4070 -67.2700 58° Northeast 536 617 33,000  Level FlightAware
12:33AM 43.4600 -67.1520 58° Northeast 537 618 33,000  Level FlightAware
12:33AM 43.5200 -67.0170 58° Northeast 539 620 33,000  Level FlightAware
12:34AM 43.5710 -66.9010 59° Northeast 540 621 33,000  Level FlightAware
12:35AM 43.6230 -66.7830 59° Northeast 541 623 33,000  Level FlightAware
12:35AM 43.6820 -66.6490 59° Northeast 539 620 33,000  Level FlightAware
12:36AM 43.7340 -66.5300 59° Northeast 540 621 33,000  Level FlightAware
12:37AM 43.7930 -66.3950 59° Northeast 542 624 33,000  Level FlightAware
12:38AM 43.8440 -66.2780 59° Northeast 543 625 33,000  Level FlightAware
12:38AM 43.9050 -66.1370 59° Northeast 546 628 33,000  Level FlightAware
12:39AM 43.9570 -66.0140 60° Northeast 546 628 33,000  Level FlightAware
12:40AM 44.0270 -65.8500 59° Northeast 549 632 33,000  Level FlightAware
12:41AM 44.0800 -65.7240 60° Northeast 548 631 33,000  Level FlightAware
12:41AM 44.1360 -65.5900 60° Northeast 546 628 33,000  Level FlightAware
12:42AM 44.1880 -65.4660 60° Northeast 547 629 33,000  Level FlightAware
12:43AM 44.2390 -65.3430 60° Northeast 547 629 33,000  Level FlightAware
12:43AM 44.2930 -65.2140 60° Northeast 547 629 33,000  Level FlightAware
12:44AM 44.3480 -65.0800 60° Northeast 545 627 33,000  Level FlightAware
12:45AM 44.4060 -64.9380 60° Northeast 541 623 33,000  Level FlightAware
12:45AM 44.4500 -64.8320 60° Northeast 541 623 33,000  Level FlightAware
12:46AM 44.5050 -64.6970 60° Northeast 546 628 33,000  Level FlightAware
12:47AM 44.5600 -64.5600 61° Northeast 544 626 33,000  Level FlightAware
12:48AM 44.6100 -64.4380 60° Northeast 549 632 33,000  Level FlightAware
12:48AM 44.6640 -64.3010 61° Northeast 551 634 33,000  Level FlightAware
12:49AM 44.7200 -64.1600 61° Northeast 552 635 33,000  Level FlightAware
12:50AM 44.7710 -64.0330 60° Northeast 552 635 33,000  Level FlightAware
12:50AM 44.8160 -63.9200 61° Northeast 552 635 33,000  Level FlightAware
12:51AM 44.8880 -63.7340 61° Northeast 551 634 33,000  Level FlightAware
12:52AM 44.9410 -63.5970 61° Northeast 552 635 33,000  Level FlightAware
12:53AM 44.9920 -63.4650 61° Northeast 550 633 33,000  Level FlightAware
12:54AM 45.0610 -63.2870 61° Northeast 550 633 33,000  Level FlightAware
12:54AM 45.0970 -63.1960 61° Northeast 550 633 33,000  Level FlightAware
12:55AM 45.1470 -63.0680 61° Northeast 550 633 33,000  Level FlightAware
12:56AM 45.1850 -62.9710 61° Northeast 550 633 33,000  Level FlightAware
12:57AM 45.2350 -62.8420 61° Northeast 550 633 33,000  Level FlightAware
12:57AM 45.2740 -62.7430 61° Northeast 550 633 33,000  Level FlightAware
12:58AM 45.3240 -62.6140 61° Northeast 550 633 33,000  Level FlightAware
12:59AM 45.3620 -62.5170 61° Northeast 550 633 33,000  Level FlightAware
12:59AM 45.4130 -62.3850 61° Northeast 550 633 33,000  Level FlightAware
01:00AM 45.4520 -62.2850 61° Northeast 550 633 33,000  Level FlightAware
01:01AM 45.4900 -62.1880 61° Northeast 550 633 33,000  Level FlightAware
01:01AM 45.5400 -62.0580 61° Northeast 550 633 33,000  Level FlightAware
01:02AM 45.5890 -61.9340 61° Northeast 550 633 33,000  Level FlightAware
01:03AM 45.6260 -61.8370 61° Northeast 550 633 33,000  Level FlightAware
01:04AM 45.7560 -61.4010 67° East 553 636 33,000  Level FlightAware
01:04AM 45.8050 -61.2620 63° Northeast 554 638 33,000  Level FlightAware
01:05AM 45.8550 -61.1210 63° Northeast 555 639 33,000  Level FlightAware
01:06AM 45.8980 -60.9960 64° Northeast 557 641 33,000  Level FlightAware
01:06AM 45.9510 -60.8420 64° Northeast 558 642 33,000  Level FlightAware
01:07AM 45.9970 -60.7080 64° Northeast 558 642 33,000  Level FlightAware
01:07AM 46.0290 -60.6160 63° Northeast 558 642 33,000  Level FlightAware
01:08AM 46.0780 -60.4690 64° Northeast 556 640 33,000  Level FlightAware
01:09AM 46.1240 -60.3330 64° Northeast 557 641 33,000  Level FlightAware
01:10AM 46.1740 -60.1860 64° Northeast 557 641 33,000  Level FlightAware
01:10AM 46.2200 -60.0460 65° Northeast 559 643 33,000  Level FlightAware
01:11AM 46.2640 -59.9140 64° Northeast 559 643 33,000  Level FlightAware
01:12AM 46.3140 -59.7650 64° Northeast 558 642 33,000  Level FlightAware
01:12AM 46.3590 -59.6280 65° Northeast 558 642 33,000  Level FlightAware
01:13AM 46.4030 -59.4930 65° Northeast 560 644 33,000  Level FlightAware
01:14AM 46.4520 -59.3410 65° Northeast 560 644 33,000  Level FlightAware
01:14AM 46.4960 -59.2050 65° Northeast 559 643 33,000  Level FlightAware
01:15AM 46.5420 -59.0640 65° Northeast 558 642 33,000  Level FlightAware
01:16AM 46.5900 -58.9150 65° Northeast 558 642 33,000  Level FlightAware
01:17AM 46.6350 -58.7760 65° Northeast 561 646 33,000  Level FlightAware
01:18AM 46.6940 -58.5900 65° Northeast 563 648 33,000  Level FlightAware
01:18AM 46.7460 -58.4260 65° Northeast 562 647 33,000  Level FlightAware
01:19AM 46.7850 -58.3000 66° East 560 644 33,000  Level FlightAware
01:20AM 46.8730 -58.0240 65° Northeast 560 644 33,000  Level FlightAware
01:21AM 46.9060 -57.9190 65° Northeast 560 644 33,000  Level FlightAware
01:22AM 46.9620 -57.7430 65° Northeast 560 644 33,000  Level FlightAware
01:23AM 47.0280 -57.5110 67° East 570 656 33,000  Level FlightAware
01:23AM 47.0710 -57.3690 66° East 571 657 33,000  Level FlightAware
01:24AM 47.1060 -57.2540 66° East 571 657 33,000  Level FlightAware
01:25AM 47.1590 -57.0770 66° East 573 659 33,000  Level FlightAware
01:25AM 47.2040 -56.9240 67° East 575 662 33,000  Level FlightAware
01:26AM 47.2490 -56.7750 66° East 576 663 33,000  Level FlightAware
01:27AM 47.2960 -56.6130 67° East 576 663 33,000  Level FlightAware
01:28AM 47.3380 -56.4700 67° East 576 663 33,000  Level FlightAware
01:28AM 47.3800 -56.3260 67° East 575 662 33,000  Level FlightAware
01:29AM 47.4180 -56.1920 67° East 576 663 33,000  Level FlightAware
01:30AM 47.4680 -56.0190 67° East 577 664 33,000  Level FlightAware
01:30AM 47.5140 -55.8570 67° East 578 665 33,000  Level FlightAware
01:31AM 47.5430 -55.7550 67° East 578 665 33,000  Level FlightAware
01:32AM 47.5900 -55.5880 67° East 579 666 33,000  Level FlightAware
01:32AM 47.6330 -55.4350 67° East 578 665 33,000  Level FlightAware
01:33AM 47.6740 -55.2890 67° East 578 665 33,000  Level FlightAware
01:34AM 47.7170 -55.1330 68° East 578 665 33,000  Level FlightAware
01:34AM 47.7600 -54.9790 67° East 578 665 33,000  Level FlightAware
01:35AM 47.8030 -54.8190 68° East 577 664 33,000  Level FlightAware
01:36AM 47.8440 -54.6720 67° East 576 663 33,000  Level FlightAware
01:36AM 47.8880 -54.5090 68° East 576 663 33,000  Level FlightAware
01:37AM 47.9280 -54.3600 68° East 575 662 33,000  Level FlightAware
01:38AM 47.9700 -54.2030 68° East 576 663 33,000 240 Level FlightAware
01:39AM 48.0110 -54.0500 68° East 578 665 33,400 720 Climbing FlightAware
01:39AM 48.0500 -53.9050 68° East 580 667 34,000 420 Climbing FlightAware
01:40AM 48.0940 -53.7380 68° East 583 671 34,000  Level FlightAware
01:41AM 48.1360 -53.5770 69° East 580 667 34,000  Level FlightAware
01:41AM 48.1770 -53.4210 68° East 577 664 34,000  Level FlightAware
01:42AM 48.2170 -53.2670 69° East 574 661 34,000  Level FlightAware
01:43AM 48.2560 -53.1150 69° East 573 659 34,000  Level FlightAware
01:43AM 48.2980 -52.9500 69° East 572 658 34,000  Level FlightAware
01:44AM 48.1333 -53.6000 69° East 538 619 34,000  Level ETMS Enhanced Traffic Management System
01:44AM 48.3360 -52.8030 69° East 572 658 34,000  Level FlightAware
01:45AM 48.3760 -52.6440 69° East 573 659 34,000  Level FlightAware
01:46AM 48.4150 -52.4900 69° East 575 662 34,000  Level FlightAware
01:46AM 48.4660 -52.2860 69° East 575 662 34,000  Level FlightAware
01:47AM 48.5070 -52.1190 70° East 574 661 34,000  Level FlightAware
01:48AM 48.5440 -51.9670 70° East 573 659 34,000  Level FlightAware
01:49AM 48.5790 -51.8240 70° East 573 659 34,000  Level FlightAware
01:49AM 48.6210 -51.6480 69° East 570 656 34,000  Level FlightAware
01:50AM 48.6560 -51.5020 70° East 568 654 34,000  Level FlightAware
01:51AM 48.6920 -51.3510 70° East 567 652 34,000  Level FlightAware
01:52AM 48.7460 -51.1250 70° East 568 654 34,000  Level FlightAware
01:52AM 48.7780 -50.9910 70° East 568 654 34,000  Level FlightAware
01:53AM 48.8140 -50.8330 71° East 572 658 34,000  Level FlightAware
01:54AM 48.8510 -50.6740 70° East 573 659 34,000  Level FlightAware
01:54AM 48.8790 -50.5580 70° East 573 659 34,000  Level FlightAware
01:55AM 48.9300 -50.3450 70° East 573 659 34,000  Level FlightAware
01:56AM 48.9570 -50.2290 70° East 573 659 34,000  Level FlightAware
01:57AM 48.9940 -50.0740 70° East 573 659 34,000  Level FlightAware
01:57AM 49.0210 -49.9610 70° East 573 659 34,000  Level FlightAware
01:58AM 49.0580 -49.8060 70° East 573 659 34,000  Level FlightAware
01:59AM 49.0870 -49.6870 70° East 573 659 34,000  Level FlightAware
02:00AM 49.1240 -49.5310 70° East 573 659 34,000  Level FlightAware
02:00AM 49.1490 -49.4250 70° East 573 659 34,000  Level FlightAware
02:01AM 49.1850 -49.2720 70° East 573 659 34,000  Level FlightAware
02:02AM 49.0000 -50.0000 69° East 550 633 34,000  Level ETMS Enhanced Traffic Management System
02:02AM 49.2140 -49.1530 70° East 573 659 34,000  Level FlightAware
02:02AM 49.2833 -48.6833 69° East 570 656 34,000  Level Gander Center
02:02AM 49.2510 -48.9940 70° East 573 659 34,000  Level FlightAware
02:03AM 49.2790 -48.8770 70° East 573 659 34,000  Level FlightAware
02:03AM 49.3500 -48.4333 68° East 570 656 34,000  Level Gander Center
02:04AM 49.3833 -48.2167 77° East 570 656 34,000  Level Gander Center
02:05AM 49.4333 -48.1333 47° Northeast 570 656 34,000  Level Gander Center
02:05AM 49.4500 -48.0000 79° East 570 656 34,000  Level Gander Center
02:06AM 49.5000 -47.7667 72° East 560 644 34,000  Level Gander Center
02:07AM 49.5167 -47.6667 76° East 570 656 34,000  Level Gander Center
02:08AM 49.5833 -47.4333 66° East 570 656 34,000  Level Gander Center
02:08AM 49.6000 -47.3167 78° East 570 656 34,000  Level Gander Center
02:10AM 49.6599 -47.0536 71° East  Level FlightAware Approximate
02:17AM 49.9843 -45.5683 71° East  Level FlightAware Approximate
02:18AM 50.0291 -45.3545 72° East  Level FlightAware Approximate
02:19AM 50.0735 -45.1403 72° East  Level FlightAware Approximate
02:20AM 50.1175 -44.9258 72° East  Level FlightAware Approximate
02:21AM 50.1611 -44.7108 72° East  Level FlightAware Approximate
02:22AM 50.2043 -44.4954 73° East  Level FlightAware Approximate
02:23AM 50.2471 -44.2797 73° East  Level FlightAware Approximate
02:24AM 50.2895 -44.0635 73° East  Level FlightAware Approximate
02:25AM 50.3315 -43.8470 73° East  Level FlightAware Approximate
02:26AM 50.3731 -43.6301 73° East  Level FlightAware Approximate
02:27AM 50.4143 -43.4128 73° East  Level FlightAware Approximate
02:28AM 50.4551 -43.1951 74° East  Level FlightAware Approximate
02:29AM 50.4955 -42.9771 74° East  Level FlightAware Approximate
02:30AM 50.5355 -42.7587 74° East  Level FlightAware Approximate
02:31AM 50.5750 -42.5399 74° East  Level FlightAware Approximate
02:32AM 50.6142 -42.3208 74° East  Level FlightAware Approximate
02:33AM 50.6530 -42.1012 74° East  Level FlightAware Approximate
02:34AM 50.6913 -41.8814 75° East  Level FlightAware Approximate
02:35AM 50.7292 -41.6612 75° East  Level FlightAware Approximate
02:36AM 50.7667 -41.4406 75° East  Level FlightAware Approximate
02:37AM 50.8038 -41.2196 75° East  Level FlightAware Approximate
02:38AM 50.8405 -40.9984 75° East  Level FlightAware Approximate
02:39AM 50.8767 -40.7767 75° East  Level FlightAware Approximate
02:40AM 50.9125 -40.5548 76° East  Level FlightAware Approximate
02:41AM 50.9479 -40.3325 76° East  Level FlightAware Approximate
02:42AM 50.9829 -40.1098 76° East  Level FlightAware Approximate
02:43AM 51.0037 -39.8834 87° East  Level FlightAware Approximate
02:44AM 51.0106 -39.6539 87° East  Level FlightAware Approximate
02:44AM 51.0000 -40.0000 86° East 526 605 34,000  Level ETMS Enhanced Traffic Management System
02:45AM 51.0170 -39.4244 87° East  Level FlightAware Approximate
02:46AM 51.0230 -39.1949 88° East  Level FlightAware Approximate
02:47AM 51.0285 -38.9653 88° East  Level FlightAware Approximate
02:48AM 51.0338 -38.7357 87° East  Level FlightAware Approximate
02:49AM 51.0413 -38.5061 87° East  Level FlightAware Approximate
02:50AM 51.0707 -37.9099 88° East 526 605 34,000  Level FlightAware Transoceanic
02:51AM 51.0762 -37.6774 88° East 526 605 34,000  Level FlightAware Transoceanic
02:52AM 51.0813 -37.4447 88° East 526 605 34,000  Level FlightAware Transoceanic
02:53AM 51.0859 -37.2120 88° East 526 605 34,000  Level FlightAware Transoceanic
02:54AM 51.0901 -36.9793 88° East 526 605 34,000  Level FlightAware Transoceanic
02:55AM 51.0938 -36.7465 89° East 526 605 34,000  Level FlightAware Transoceanic
02:56AM 51.0970 -36.5137 89° East 526 605 34,000  Level FlightAware Transoceanic
02:57AM 51.0998 -36.2809 89° East 526 605 34,000  Level FlightAware Transoceanic
02:58AM 51.1021 -36.0480 89° East 526 605 34,000  Level FlightAware Transoceanic
02:59AM 51.1040 -35.8152 89° East 526 605 34,000  Level FlightAware Transoceanic
03:00AM 51.1054 -35.5823 90° East 526 605 34,000  Level FlightAware Transoceanic
03:01AM 51.1063 -35.3494 90° East 526 605 34,000  Level FlightAware Transoceanic
03:02AM 51.1067 -35.1165 90° East 526 605 34,000  Level FlightAware Transoceanic
03:03AM 51.1067 -34.8835 90° East 526 605 34,000  Level FlightAware Transoceanic
03:04AM 51.1063 -34.6506 90° East 526 605 34,000  Level FlightAware Transoceanic
03:05AM 51.1054 -34.4177 90° East 526 605 34,000  Level FlightAware Transoceanic
03:06AM 51.1040 -34.1848 91° East 526 605 34,000  Level FlightAware Transoceanic
03:07AM 51.1021 -33.9520 91° East 526 605 34,000  Level FlightAware Transoceanic
03:08AM 51.0998 -33.7191 91° East 526 605 34,000  Level FlightAware Transoceanic
03:09AM 51.0970 -33.4863 91° East 526 605 34,000  Level FlightAware Transoceanic
03:10AM 51.0938 -33.2535 91° East 526 605 34,000  Level FlightAware Transoceanic
03:11AM 51.0901 -33.0207 92° East 526 605 34,000  Level FlightAware Transoceanic
03:12AM 51.0859 -32.7880 92° East 526 605 34,000  Level FlightAware Transoceanic
03:13AM 51.0813 -32.5553 92° East 526 605 34,000  Level FlightAware Transoceanic
03:14AM 51.0762 -32.3226 92° East 526 605 34,000  Level FlightAware Transoceanic
03:15AM 51.0707 -32.0901 92° East 526 605 34,000  Level FlightAware Transoceanic
03:16AM 51.0647 -31.8575 92° East 526 605 34,000  Level FlightAware Transoceanic
03:17AM 51.0582 -31.6251 93° East 526 605 34,000  Level FlightAware Transoceanic
03:18AM 51.0513 -31.3927 93° East 526 605 34,000  Level FlightAware Transoceanic
03:19AM 51.0439 -31.1604 93° East 526 605 34,000  Level FlightAware Transoceanic
03:20AM 51.0360 -30.9281 93° East 526 605 34,000  Level FlightAware Transoceanic
03:21AM 51.0277 -30.6960 93° East 526 605 34,000  Level FlightAware Transoceanic
03:22AM 51.0189 -30.4639 94° East 526 605 34,000  Level FlightAware Transoceanic
03:23AM 51.0097 -30.2319 94° East 526 605 34,000 240 Level FlightAware Transoceanic
03:24AM 51.0001 -30.0027 94° East  Level FlightAware Approximate
03:25AM 50.9898 -29.7737 94° East  Level FlightAware Approximate
03:26AM 51.0000 -30.0000 95° East 526 605 35,000  Level ETMS Enhanced Traffic Management System
03:26AM 50.9874 -29.7768 95° East  Level FlightAware Approximate
03:27AM 50.9740 -29.5482 95° East  Level FlightAware Approximate
03:28AM 50.9602 -29.3198 95° East  Level FlightAware Approximate
03:29AM 50.9459 -29.0915 96° East  Level FlightAware Approximate
03:30AM 50.9312 -28.8633 96° East  Level FlightAware Approximate
03:31AM 50.9160 -28.6353 96° East  Level FlightAware Approximate
03:32AM 50.8824 -28.1529 96° East 526 605 35,000  Level FlightAware Transoceanic
03:33AM 50.8657 -27.9227 97° East 526 605 35,000  Level FlightAware Transoceanic
03:34AM 50.8485 -27.6927 97° East 526 605 35,000  Level FlightAware Transoceanic
03:35AM 50.8309 -27.4628 97° East 526 605 35,000  Level FlightAware Transoceanic
03:36AM 50.8128 -27.2332 97° East 526 605 35,000  Level FlightAware Transoceanic
03:37AM 50.7942 -27.0037 97° East 526 605 35,000  Level FlightAware Transoceanic
03:38AM 50.7752 -26.7743 98° East 526 605 35,000  Level FlightAware Transoceanic
03:39AM 50.7558 -26.5452 98° East 526 605 35,000  Level FlightAware Transoceanic
03:40AM 50.7359 -26.3163 98° East 526 605 35,000  Level FlightAware Transoceanic
03:41AM 50.7156 -26.0875 98° East 526 605 35,000  Level FlightAware Transoceanic
03:42AM 50.6948 -25.8590 98° East 526 605 35,000  Level FlightAware Transoceanic
03:43AM 50.6735 -25.6307 98° East 526 605 35,000  Level FlightAware Transoceanic
03:44AM 50.6519 -25.4025 99° East 526 605 35,000  Level FlightAware Transoceanic
03:45AM 50.6297 -25.1746 99° East 526 605 35,000  Level FlightAware Transoceanic
03:46AM 50.6072 -24.9469 99° East 526 605 35,000  Level FlightAware Transoceanic
03:47AM 50.5841 -24.7195 99° East 526 605 35,000  Level FlightAware Transoceanic
03:48AM 50.5607 -24.4922 99° East 526 605 35,000  Level FlightAware Transoceanic
03:49AM 50.5368 -24.2652 99° East 526 605 35,000  Level FlightAware Transoceanic
03:50AM 50.5125 -24.0384 100° East 526 605 35,000  Level FlightAware Transoceanic
03:51AM 50.4877 -23.8118 100° East 526 605 35,000  Level FlightAware Transoceanic
03:52AM 50.4625 -23.5855 100° East 526 605 35,000  Level FlightAware Transoceanic
03:53AM 50.4368 -23.3594 100° East 526 605 35,000  Level FlightAware Transoceanic
03:54AM 50.4107 -23.1336 100° East 526 605 35,000  Level FlightAware Transoceanic
03:55AM 50.3842 -22.9081 101° East 526 605 35,000  Level FlightAware Transoceanic
03:56AM 50.3572 -22.6827 101° East 526 605 35,000  Level FlightAware Transoceanic
03:57AM 50.3298 -22.4577 101° East 526 605 35,000  Level FlightAware Transoceanic
03:58AM 50.3020 -22.2329 101° East 526 605 35,000  Level FlightAware Transoceanic
03:59AM 50.2737 -22.0083 101° East 526 605 35,000  Level FlightAware Transoceanic
04:00AM 50.2450 -21.7841 101° East 526 605 35,000  Level FlightAware Transoceanic
04:01AM 50.2159 -21.5601 102° East 526 605 35,000  Level FlightAware Transoceanic
04:02AM 50.1863 -21.3363 102° East 526 605 35,000  Level FlightAware Transoceanic
04:03AM 50.1563 -21.1129 102° East 526 605 35,000  Level FlightAware Transoceanic
04:04AM 50.1259 -20.8897 102° East 526 605 35,000  Level FlightAware Transoceanic
04:05AM 50.0951 -20.6669 102° East 526 605 35,000  Level FlightAware Transoceanic
04:06AM 50.0638 -20.4443 102° East 526 605 35,000  Level FlightAware Transoceanic
04:07AM 50.0321 -20.2220 103° East 526 605 35,000  Level FlightAware Transoceanic
04:08AM 50.0004 -20.0026 103° East  Level FlightAware Approximate
04:09AM 49.9680 -19.7835 103° East  Level FlightAware Approximate
04:10AM 49.9929 -19.7808 93° East  Level FlightAware Approximate
04:11AM 49.9851 -19.5563 93° East  Level FlightAware Approximate
04:12AM 49.9770 -19.3319 93° East  Level FlightAware Approximate
04:13AM 49.9683 -19.1076 93° East  Level FlightAware Approximate
04:14AM 49.9593 -18.8834 93° East  Level FlightAware Approximate
04:15AM 49.9498 -18.6593 94° East  Level FlightAware Approximate
04:16AM 49.9399 -18.4352 94° East  Level FlightAware Approximate
04:17AM 49.9296 -18.2113 94° East  Level FlightAware Approximate
04:18AM 49.9188 -17.9874 94° East  Level FlightAware Approximate
04:19AM 49.9077 -17.7637 94° East  Level FlightAware Approximate
04:20AM 49.8960 -17.5400 95° East  Level FlightAware Approximate
04:21AM 49.8840 -17.3165 95° East  Level FlightAware Approximate
04:22AM 49.8715 -17.0931 95° East  Level FlightAware Approximate
04:23AM 49.8586 -16.8697 95° East  Level FlightAware Approximate
04:24AM 49.8453 -16.6466 95° East  Level FlightAware Approximate
04:25AM 49.8315 -16.4235 95° East  Level FlightAware Approximate
04:26AM 49.8173 -16.2006 96° East  Level FlightAware Approximate
04:27AM 49.8027 -15.9778 96° East  Level FlightAware Approximate
04:28AM 49.7876 -15.7551 96° East  Level FlightAware Approximate
04:29AM 49.7721 -15.5326 96° East  Level FlightAware Approximate
04:30AM 49.7562 -15.3102 96° East  Level FlightAware Approximate
04:31AM 49.7399 -15.0880 96° East  Level FlightAware Approximate
04:32AM 49.7230 -14.8660 97° East  Level FlightAware Approximate
04:33AM 49.7055 -14.6441 97° East  Level FlightAware Approximate
04:34AM 49.6875 -14.4224 97° East  Level FlightAware Approximate
04:35AM 49.6692 -14.2009 97° East  Level FlightAware Approximate
04:36AM 49.6504 -13.9795 97° East  Level FlightAware Approximate
04:37AM 49.6312 -13.7583 98° East  Level FlightAware Approximate
04:38AM 49.6116 -13.5373 98° East  Level FlightAware Approximate
04:39AM 49.5916 -13.3165 98° East  Level FlightAware Approximate
04:40AM 49.5711 -13.0958 98° East  Level FlightAware Approximate
04:41AM 49.5503 -12.8754 98° East  Level FlightAware Approximate
04:42AM 49.5292 -12.6550 98° East  Level FlightAware Approximate
04:43AM 49.5086 -12.4347 98° East  Level FlightAware Approximate
04:44AM 49.4876 -12.2145 98° East  Level FlightAware Approximate
04:45AM 49.4661 -11.9946 98° East  Level FlightAware Approximate
04:46AM 49.4443 -11.7748 99° East  Level FlightAware Approximate
04:47AM 49.4220 -11.5553 99° East  Level FlightAware Approximate
04:48AM 49.3993 -11.3359 99° East  Level FlightAware Approximate
04:49AM 49.3762 -11.1167 99° East  Level FlightAware Approximate
04:50AM 49.3527 -10.8978 99° East  Level FlightAware Approximate
04:51AM 49.3288 -10.6790 99° East  Level FlightAware Approximate
04:52AM 49.3044 -10.4605 100° East  Level FlightAware Approximate
04:53AM 49.2797 -10.2422 100° East  Level FlightAware Approximate
04:54AM 49.2545 -10.0241 100° East  Level FlightAware Approximate
04:55AM 49.2289 -9.8062 100° East  Level FlightAware Approximate
04:56AM 49.2029 -9.5886 100° East  Level FlightAware Approximate
04:57AM 49.1766 -9.3712 100° East  Level FlightAware Approximate
04:58AM 49.1498 -9.1540 101° East  Level FlightAware Approximate
04:58AM 49.2990 -9.4060 101° East 481 554 35,000  Level FlightAware
04:58AM 49.2780 -9.2800 104° East 482 555 35,000  Level FlightAware
04:59AM 49.1226 -8.9371 101° East  Level FlightAware Approximate
04:59AM 49.2590 -9.1500 103° East 482 555 35,000  Level FlightAware
05:00AM 49.2340 -9.0030 105° East 484 557 35,000  Level FlightAware
05:00AM 49.2304 -8.9667 105° East 488 562 35,000  Level FlightAware UK
05:01AM 49.2110 -8.8640 104° East 485 558 35,000  Level FlightAware
05:01AM 49.2208 -8.9071 104° East 490 564 35,000  Level FlightAware UK
05:01AM 49.2111 -8.8476 104° East 488 562 35,000  Level FlightAware UK
05:01AM 49.2013 -8.7879 104° East 488 562 35,000  Level FlightAware UK
05:01AM 49.1840 -8.7000 104° East 485 558 35,000  Level FlightAware
05:02AM 49.1850 -8.6886 104° East 488 562 35,000  Level FlightAware UK
05:02AM 49.1751 -8.6289 104° East 490 564 35,000  Level FlightAware UK
05:02AM 49.1630 -8.5760 104° East 486 559 35,000  Level FlightAware
05:02AM 49.1652 -8.5693 104° East 490 564 35,000  Level FlightAware UK
05:03AM 49.1551 -8.5097 104° East 490 564 35,000  Level FlightAware UK
05:03AM 49.1380 -8.4250 104° East 487 560 35,000  Level FlightAware
05:03AM 49.1417 -8.4301 104° East 490 564 35,000  Level FlightAware UK
05:03AM 49.1316 -8.3704 105° East 490 564 35,000  Level FlightAware UK
05:03AM 49.1160 -8.2940 105° East 486 559 35,000  Level FlightAware
05:04AM 49.1181 -8.2909 105° East 488 562 35,000  Level FlightAware UK
05:04AM 49.1080 -8.2312 104° East 488 562 35,000  Level FlightAware UK
05:04AM 49.0940 -8.1610 104° East 486 559 35,000  Level FlightAware
05:04AM 49.0945 -8.1516 104° East 488 562 35,000  Level FlightAware UK
05:05AM 49.0842 -8.0920 105° East 488 562 35,000  Level FlightAware UK
05:05AM 49.0690 -8.0160 105° East 487 560 35,000  Level FlightAware
05:05AM 49.0702 -8.0125 105° East 488 562 35,000  Level FlightAware UK
05:05AM 49.0595 -7.9523 105° East 488 562 35,000  Level FlightAware UK
05:05AM 49.0440 -7.8760 105° East 488 562 35,000  Level FlightAware
05:06AM 49.0452 -7.8727 105° East 488 562 35,000  Level FlightAware UK
05:06AM 49.0345 -7.8130 105° East 488 562 35,000  Level FlightAware UK
05:06AM 49.0200 -7.7370 105° East 489 563 35,000  Level FlightAware
05:06AM 49.0203 -7.7333 105° East 488 562 35,000  Level FlightAware UK
05:07AM 49.0098 -7.6735 105° East 488 562 35,000  Level FlightAware UK
05:07AM 48.9950 -7.5970 105° East 489 563 35,000  Level FlightAware
05:07AM 48.9956 -7.5937 105° East 488 562 35,000  Level FlightAware UK
05:07AM 48.9848 -7.5339 105° East 488 562 35,000  Level FlightAware UK
05:08AM 48.9700 -7.4570 105° East 489 563 35,000  Level FlightAware
05:08AM 48.9668 -7.4343 105° East 490 564 35,000  Level FlightAware UK
05:08AM 48.9559 -7.3745 105° East 490 564 35,000  Level FlightAware UK
05:08AM 48.9440 -7.3110 105° East 489 563 35,000  Level FlightAware
05:09AM 48.9451 -7.3148 105° East 490 564 35,000  Level FlightAware UK
05:09AM 48.9342 -7.2550 105° East 490 564 35,000  Level FlightAware UK
05:09AM 48.9190 -7.1730 105° East 488 562 35,000  Level FlightAware
05:09AM 48.9199 -7.1755 105° East 488 562 35,000  Level FlightAware UK
05:10AM 48.9090 -7.1159 106° East 490 564 35,000  Level FlightAware UK
05:10AM 48.8950 -7.0420 106° East 487 560 35,000  Level FlightAware
05:10AM 48.8946 -7.0365 106° East 490 564 35,000  Level FlightAware UK
05:10AM 48.8910 -6.9749 95° East 488 562 35,000  Level FlightAware UK
05:10AM 48.8800 -6.8980 95° East 489 563 35,000  Level FlightAware
05:11AM 48.8905 -6.8916 95° East 490 564 35,000  Level FlightAware UK
05:11AM 48.8950 -6.8297 84° East 488 562 35,000  Level FlightAware UK
05:11AM 48.8840 -6.7860 84° East 490 564 35,000  Level FlightAware
05:11AM 48.8979 -6.7677 84° East 490 564 35,000  Level FlightAware UK
05:12AM 48.9011 -6.7056 86° East 492 566 35,000  Level FlightAware UK
05:12AM 48.8930 -6.6220 86° East 489 563 35,000  Level FlightAware
05:12AM 48.9055 -6.6230 86° East 492 566 35,000  Level FlightAware UK
05:12AM 48.9088 -6.5613 85° East 490 564 35,000  Level FlightAware UK
05:12AM 48.8990 -6.5070 85° East 487 560 35,000  Level FlightAware
05:13AM 48.9129 -6.4790 85° East 488 562 35,000  Level FlightAware UK
05:13AM 48.9161 -6.4175 85° East 488 562 35,000  Level FlightAware UK
05:13AM 48.9080 -6.3340 85° East 484 557 35,000  Level FlightAware
05:13AM 48.9211 -6.3153 85° East 488 562 35,000  Level FlightAware UK
05:14AM 48.9150 -6.1980 85° East 483 556 35,000  Level FlightAware
05:14AM 48.9301 -6.1318 85° East 486 559 35,000  Level FlightAware UK
05:15AM 48.9230 -6.0440 85° East 484 557 35,000  Level FlightAware
05:15AM 48.9350 -6.0300 85° East 484 557 35,000  Level FlightAware UK
05:15AM 48.9379 -5.9688 86° East 484 557 35,000  Level FlightAware UK
05:15AM 48.9300 -5.9110 86° East 484 557 35,000  Level FlightAware
05:15AM 48.9407 -5.9076 86° East 486 559 35,000  Level FlightAware UK
05:16AM 48.9444 -5.8258 86° East 488 562 35,000  Level FlightAware UK
05:16AM 48.9370 -5.7630 86° East 484 557 35,000  Level FlightAware
05:16AM 48.9481 -5.7434 86° East 486 559 35,000  Level FlightAware UK
05:17AM 48.9507 -5.6821 86° East 486 559 35,000  Level FlightAware UK
05:17AM 48.9430 -5.6340 86° East 484 557 35,000  Level FlightAware
05:17AM 48.9536 -5.6208 86° East 484 557 35,000  Level FlightAware UK
05:17AM 48.9564 -5.5594 86° East 486 559 35,000  Level FlightAware UK
05:17AM 48.9510 -5.4720 86° East 484 557 35,000  Level FlightAware
05:18AM 48.9607 -5.4570 86° East 486 559 35,000  Level FlightAware UK
05:18AM 48.9540 -5.3410 86° East 484 557 35,000  Level FlightAware
05:18AM 48.9493 -5.3159 86° East 484 557 35,000  Level FlightAware UK
05:19AM 48.9230 -5.2080 86° East 484 557 35,000  Level FlightAware
05:19AM 48.8847 -5.1596 86° East 486 559 35,000  Level FlightAware UK
05:19AM 48.8710 -5.0950 86° East 485 558 35,000  Level FlightAware
05:20AM 48.8535 -5.0924 86° East 488 562 35,000  Level FlightAware UK
05:20AM 48.8218 -5.0256 126° Southeast 486 559 35,000  Level FlightAware UK
05:20AM 48.8130 -4.9720 126° Southeast 484 557 35,000  Level FlightAware
05:20AM 48.7898 -4.9586 126° Southeast 488 562 35,000  Level FlightAware UK
05:21AM 48.7661 -4.9089 126° Southeast 486 559 35,000  Level FlightAware UK
05:21AM 48.7550 -4.8510 126° Southeast 484 557 35,000  Level FlightAware
05:21AM 48.7343 -4.8428 126° Southeast 486 559 35,000  Level FlightAware UK
05:21AM 48.7105 -4.7931 126° Southeast 486 559 35,000  Level FlightAware UK
05:22AM 48.7020 -4.7400 126° Southeast 484 557 35,000 660 Level FlightAware
05:22AM 48.6868 -4.7433 126° Southeast 488 562 35,200 1,020 Climbing FlightAware UK
05:22AM 48.6490 -4.6300 126° Southeast 486 559 35,700 1,080 Climbing FlightAware
05:23AM 48.6231 -4.6107 126° Southeast 490 564 36,100 1,140 Climbing FlightAware UK
05:23AM 48.5990 -4.5609 126° Southeast 490 564 36,500 1,260 Climbing FlightAware UK
05:23AM 48.5890 -4.5050 126° Southeast 484 557 36,600 960 Climbing FlightAware
05:23AM 48.5589 -4.4782 126° Southeast 490 564 37,000 600 Climbing FlightAware UK
05:24AM 48.5360 -4.3970 126° Southeast 485 558 37,000  Level FlightAware
05:24AM 48.5186 -4.3952 126° Southeast 490 564 37,000  Level FlightAware UK
05:24AM 48.4868 -4.3297 126° Southeast 488 562 37,000  Level FlightAware UK
05:24AM 48.4780 -4.2770 126° Southeast 482 555 37,000  Level FlightAware
05:25AM 48.4546 -4.2633 126° Southeast 486 559 37,000  Level FlightAware UK
05:25AM 48.4305 -4.2144 127° Southeast 486 559 37,000  Level FlightAware UK
05:25AM 48.4250 -4.1700 127° Southeast 480 552 37,000  Level FlightAware
05:26AM 48.3670 -4.0520 126° Southeast 478 550 37,000  Level FlightAware
05:26AM 48.3424 -4.0356 126° Southeast 488 562 37,000  Level FlightAware UK
05:26AM 48.3120 -3.9400 126° Southeast 476 548 37,000  Level FlightAware
05:27AM 48.2783 -3.9067 126° Southeast 484 557 37,000  Level FlightAware UK
05:27AM 48.2590 -3.8340 126° Southeast 474 545 37,000  Level FlightAware
05:28AM 48.2010 -3.7180 127° Southeast 474 545 37,000  Level FlightAware
05:28AM 48.1500 -3.6170 127° Southeast 474 545 37,000  Level FlightAware
05:29AM 48.0920 -3.5010 127° Southeast 473 544 37,000  Level FlightAware
05:30AM 48.0400 -3.3960 127° Southeast 471 542 37,000  Level FlightAware
05:31AM 47.9850 -3.2870 127° Southeast 471 542 37,000  Level FlightAware
05:31AM 47.9290 -3.1780 127° Southeast 471 542 37,000  Level FlightAware
05:32AM 47.8710 -3.0640 127° Southeast 471 542 37,000  Level FlightAware
05:33AM 47.8160 -2.9570 127° Southeast 470 541 37,000  Level FlightAware
05:33AM 47.7620 -2.8540 128° Southeast 470 541 37,000  Level FlightAware
05:34AM 47.7050 -2.7420 127° Southeast 470 541 37,000  Level FlightAware
05:35AM 47.6260 -2.5920 128° Southeast 472 543 37,000  Level FlightAware
05:36AM 47.5730 -2.4900 128° Southeast 473 544 37,000  Level FlightAware
05:36AM 47.5170 -2.3830 128° Southeast 476 548 37,000  Level FlightAware
05:37AM 47.4580 -2.2710 128° Southeast 477 549 37,000  Level FlightAware
05:38AM 47.4040 -2.1690 128° Southeast 478 550 37,000  Level FlightAware
05:39AM 47.3430 -2.0540 128° Southeast 478 550 37,000  Level FlightAware
05:39AM 47.2880 -1.9520 128° Southeast 475 547 37,000  Level FlightAware
05:40AM 47.2350 -1.8510 128° Southeast 472 543 37,000  Level FlightAware
05:41AM 47.1750 -1.7400 128° Southeast 470 541 37,000  Level FlightAware
05:41AM 47.1220 -1.6420 128° Southeast 468 539 37,000  Level FlightAware
05:42AM 47.0600 -1.5270 128° Southeast 468 539 37,000  Level FlightAware
05:43AM 47.0060 -1.4280 129° Southeast 467 537 37,000  Level FlightAware
05:43AM 46.9460 -1.3190 129° Southeast 465 535 37,000  Level FlightAware
05:44AM 46.8920 -1.2210 129° Southeast 465 535 37,000  Level FlightAware
05:45AM 46.8410 -1.1280 129° Southeast 466 536 37,000  Level FlightAware
05:46AM 46.7800 -1.0200 129° Southeast 467 537 37,000  Level FlightAware
05:46AM 46.7220 -0.9150 129° Southeast 469 540 37,000  Level FlightAware
05:47AM 46.6700 -0.8220 129° Southeast 471 542 37,000  Level FlightAware
05:48AM 46.6130 -0.7190 129° Southeast 471 542 37,000  Level FlightAware
05:48AM 46.5700 -0.6420 129° Southeast 471 542 37,000  Level FlightAware
05:49AM 46.5060 -0.5000 123° Southeast 476 548 37,000  Level FlightAware
05:49AM 46.5100 -0.4630 81° East 37,000  Level FlightAware
05:50AM 46.4760 -0.3370 111° Southeast 479 551 37,000  Level FlightAware
05:50AM 46.4600 -0.2420 104° East 479 551 37,000  Level FlightAware
05:51AM 46.4380 -0.0940 102° East 479 551 37,000  Level FlightAware
05:52AM 46.4190 0.0280 103° East 476 548 37,000  Level FlightAware
05:53AM 46.3980 0.1660 102° East 474 545 37,000  Level FlightAware
05:53AM 46.3800 0.2820 103° East 474 545 37,000  Level FlightAware
05:54AM 46.3580 0.4210 103° East 473 544 37,000  Level FlightAware
05:55AM 46.3330 0.5790 103° East 472 543 37,000  Level FlightAware
05:56AM 46.2990 0.8090 102° East 473 544 37,000  Level FlightAware
05:57AM 46.2850 0.9060 102° East 473 544 37,000  Level FlightAware
05:57AM 46.2500 1.0740 107° East 473 544 37,000  Level FlightAware
05:59AM 46.1680 1.3080 117° Southeast 476 548 37,000  Level FlightAware
05:59AM 46.1350 1.4020 117° Southeast 476 548 37,000  Level FlightAware
06:00AM 46.1000 1.5010 117° Southeast 476 548 37,000  Level FlightAware
06:01AM 46.0400 1.6630 118° Southeast 477 549 37,000  Level FlightAware
06:02AM 45.9990 1.7710 119° Southeast 479 551 37,000  Level FlightAware
06:02AM 45.9530 1.8940 118° Southeast 481 554 37,000  Level FlightAware
06:03AM 45.9060 2.0190 118° Southeast 483 556 37,000  Level FlightAware
06:04AM 45.8620 2.1340 119° Southeast 485 558 37,000  Level FlightAware
06:04AM 45.8170 2.2540 118° Southeast 486 559 37,000  Level FlightAware
06:05AM 45.7690 2.3810 118° Southeast 486 559 37,000  Level FlightAware
06:06AM 45.7250 2.4950 119° Southeast 484 557 37,000  Level FlightAware
06:07AM 45.6810 2.6080 119° Southeast 483 556 37,000  Level FlightAware
06:07AM 45.6370 2.7230 119° Southeast 482 555 37,000  Level FlightAware
06:08AM 45.5750 2.8840 119° Southeast 480 552 37,000  Level FlightAware
06:09AM 45.5200 3.0290 118° Southeast 480 552 37,000  Level FlightAware
06:10AM 45.4690 3.1570 120° Southeast 480 552 37,000  Level FlightAware
06:11AM 45.3950 3.3460 119° Southeast 479 551 37,000  Level FlightAware
06:12AM 45.3080 3.5640 120° Southeast 484 557 37,000  Level FlightAware
06:13AM 45.2570 3.6930 119° Southeast 484 557 37,000  Level FlightAware
06:14AM 45.2080 3.8180 119° Southeast 484 557 37,000  Level FlightAware
06:14AM 45.1640 3.9280 120° Southeast 484 557 37,000  Level FlightAware
06:15AM 45.1220 4.0350 119° Southeast 484 557 37,000  Level FlightAware
06:16AM 45.0760 4.1490 120° Southeast 37,000  Level FlightAware
06:17AM 45.0140 4.3020 120° Southeast 485 558 37,000  Level FlightAware
06:18AM 44.9610 4.4310 120° Southeast 485 558 37,000  Level FlightAware
06:18AM 44.9210 4.5300 120° Southeast 485 558 37,000  Level FlightAware
06:19AM 44.8680 4.6590 120° Southeast 485 558 37,000  Level FlightAware
06:20AM 44.8230 4.8190 112° Southeast 484 557 37,000  Level FlightAware
06:20AM 44.7990 4.9380 106° East 482 555 37,000  Level FlightAware
06:21AM 44.7710 5.0740 106° East 481 554 37,000  Level FlightAware
06:22AM 44.7440 5.2050 106° East 478 550 37,000  Level FlightAware
06:23AM 44.7180 5.3270 107° East 478 550 37,000  Level FlightAware
06:23AM 44.6920 5.4490 107° East 479 551 37,000  Level FlightAware
06:24AM 44.6680 5.5850 104° East 482 555 37,000  Level FlightAware
06:25AM 44.6700 5.7040 89° East 482 555 37,000  Level FlightAware
06:25AM 44.6670 5.8320 92° East 483 556 37,000  Level FlightAware
06:26AM 44.6470 5.9720 101° East 478 550 37,000  Level FlightAware
06:27AM 44.5890 6.0670 131° Southeast 474 545 37,000  Level FlightAware
06:28AM 44.5120 6.1500 142° Southeast 481 554 37,000  Level FlightAware
06:28AM 44.4360 6.2370 141° Southeast 483 556 37,000  Level FlightAware
06:29AM 44.3760 6.3270 133° Southeast 482 555 37,000  Level FlightAware
06:30AM 44.3090 6.4270 133° Southeast 482 555 37,000  Level FlightAware
06:30AM 44.2430 6.5250 133° Southeast 483 556 37,000  Level FlightAware
06:31AM 44.2000 6.5890 133° Southeast 484 557 37,000  Level FlightAware
06:32AM 44.1380 6.6810 133° Southeast 486 559 37,000  Level FlightAware
06:32AM 44.0700 6.7810 133° Southeast 486 559 37,000  Level FlightAware
06:33AM 44.0100 6.8710 133° Southeast 487 560 37,000  Level FlightAware
06:34AM 43.9530 6.9660 130° Southeast 488 562 37,000  Level FlightAware
06:34AM 43.8930 7.0790 126° Southeast 490 564 37,000  Level FlightAware
06:35AM 43.8380 7.1790 127° Southeast 491 565 37,000  Level FlightAware
06:36AM 43.7780 7.2930 126° Southeast 492 566 37,000  Level FlightAware
06:36AM 43.7250 7.3950 126° Southeast 492 566 37,000  Level FlightAware
06:37AM 43.6670 7.5040 126° Southeast 493 567 37,000  Level FlightAware
06:38AM 43.6120 7.6070 126° Southeast 493 567 37,000  Level FlightAware
06:39AM 43.5490 7.7250 126° Southeast 494 568 37,000  Level FlightAware
06:39AM 43.4920 7.8320 126° Southeast 495 570 37,000  Level FlightAware
06:40AM 43.4400 7.9290 126° Southeast 496 571 37,000  Level FlightAware
06:41AM 43.3840 8.0330 127° Southeast 497 572 37,000  Level FlightAware
06:41AM 43.3230 8.1450 127° Southeast 498 573 37,000  Level FlightAware
06:42AM 43.2680 8.2450 127° Southeast 496 571 37,000  Level FlightAware
06:43AM 43.2070 8.3570 127° Southeast 493 567 37,000  Level FlightAware
06:43AM 43.1520 8.4570 127° Southeast 491 565 37,000  Level FlightAware
06:44AM 43.0930 8.5660 127° Southeast 490 564 37,000  Level FlightAware
06:45AM 43.0460 8.6520 127° Southeast 489 563 37,000  Level FlightAware
06:46AM 42.9800 8.7710 127° Southeast 490 564 37,000  Level FlightAware
06:46AM 42.9200 8.8790 127° Southeast 491 565 37,000  Level FlightAware
06:47AM 42.8630 8.9810 127° Southeast 493 567 37,000  Level FlightAware
06:48AM 42.8100 9.0760 127° Southeast 494 568 37,000  Level FlightAware
06:48AM 42.7510 9.1810 127° Southeast 496 571 37,000  Level FlightAware
06:49AM 42.6890 9.2910 127° Southeast 498 573 37,000  Level FlightAware
06:50AM 42.6340 9.3880 128° Southeast 500 575 37,000  Level FlightAware
06:50AM 42.5730 9.5020 126° Southeast 504 580 37,000  Level FlightAware
06:51AM 42.5320 9.6270 114° Southeast 509 586 37,000  Level FlightAware
06:52AM 42.5010 9.7480 109° East 512 589 37,000  Level FlightAware
06:53AM 42.4680 9.8750 109° East 515 593 37,000  Level FlightAware
06:53AM 42.4330 10.0090 109° East 515 593 37,000  Level FlightAware
06:54AM 42.4020 10.1270 110° East 515 593 37,000  Level FlightAware
06:55AM 42.3670 10.2590 110° East 516 594 37,000  Level FlightAware
06:55AM 42.3330 10.3810 111° Southeast 515 593 37,000  Level FlightAware
06:56AM 42.2820 10.4990 120° Southeast 512 589 37,000  Level FlightAware
06:57AM 42.2290 10.6010 125° Southeast 510 587 37,000  Level FlightAware
06:58AM 42.1510 10.7470 126° Southeast 505 581 37,000  Level FlightAware
06:58AM 42.0890 10.8630 126° Southeast 505 581 37,000  Level FlightAware
06:59AM 42.0270 10.9780 126° Southeast 504 580 37,000  Level FlightAware
07:00AM 41.9780 11.0680 126° Southeast 504 580 37,000  Level FlightAware
07:00AM 41.9160 11.1840 126° Southeast 504 580 37,000  Level FlightAware
07:01AM 41.8540 11.2990 126° Southeast 505 581 37,000  Level FlightAware
07:02AM 41.8060 11.3860 126° Southeast 505 581 37,000  Level FlightAware
07:03AM 41.7360 11.5140 126° Southeast 506 582 37,000  Level FlightAware
07:03AM 41.6800 11.6170 126° Southeast 512 589 37,000  Level FlightAware
07:04AM 41.6240 11.7190 126° Southeast 515 593 37,000  Level FlightAware
07:05AM 41.5670 11.8210 127° Southeast 515 593 37,000  Level FlightAware
07:05AM 41.5100 11.9250 126° Southeast 517 595 37,000  Level FlightAware
07:06AM 41.4390 12.0530 126° Southeast 520 598 37,000  Level FlightAware
07:07AM 41.3810 12.1570 127° Southeast 517 595 37,000  Level FlightAware
07:07AM 41.3220 12.2630 127° Southeast 520 598 37,000  Level FlightAware
07:08AM 41.2640 12.3660 127° Southeast 521 600 37,000  Level FlightAware
07:09AM 41.2090 12.4770 123° Southeast 525 604 37,000  Level FlightAware
07:10AM 41.1630 12.6090 115° Southeast 533 613 37,000  Level FlightAware
07:10AM 41.1240 12.7300 113° Southeast 534 615 37,000  Level FlightAware
07:11AM 41.0760 12.8770 113° Southeast 534 615 37,000  Level FlightAware
07:12AM 41.0350 13.0030 113° Southeast 534 615 37,000  Level FlightAware
07:12AM 40.9920 13.1360 113° Southeast 532 612 37,000  Level FlightAware
07:13AM 40.9480 13.2700 113° Southeast 533 613 37,000  Level FlightAware
07:14AM 40.9100 13.3840 114° Southeast 532 612 37,000  Level FlightAware
07:15AM 40.8650 13.5020 117° Southeast 530 610 37,000  Level FlightAware
07:15AM 40.8020 13.6260 124° Southeast 531 611 37,000  Level FlightAware
07:16AM 40.7450 13.7410 123° Southeast 530 610 37,000  Level FlightAware
07:17AM 40.6910 13.8510 123° Southeast 532 612 37,000  Level FlightAware
07:17AM 40.6450 13.9470 122° Southeast 532 612 37,000  Level FlightAware
07:18AM 40.5820 14.0780 122° Southeast 533 613 37,000  Level FlightAware
07:19AM 40.5260 14.1940 122° Southeast 533 613 37,000  Level FlightAware
07:19AM 40.4720 14.3040 123° Southeast 533 613 37,000  Level FlightAware
07:20AM 40.4090 14.4270 124° Southeast 534 615 37,000  Level FlightAware
07:21AM 40.3510 14.5410 124° Southeast 536 617 37,000  Level FlightAware
07:22AM 40.2920 14.6550 124° Southeast 536 617 37,000  Level FlightAware
07:22AM 40.2370 14.7620 124° Southeast 537 618 37,000  Level FlightAware
07:23AM 40.1820 14.8680 124° Southeast 537 618 37,000  Level FlightAware
07:24AM 40.1200 14.9880 124° Southeast 537 618 37,000  Level FlightAware
07:24AM 40.0590 15.1050 124° Southeast 538 619 37,000  Level FlightAware
07:25AM 39.9810 15.2550 124° Southeast 538 619 37,000  Level FlightAware
07:26AM 39.9240 15.3630 125° Southeast 538 619 37,000  Level FlightAware
07:27AM 39.8640 15.4770 124° Southeast 538 619 37,000  Level FlightAware
07:27AM 39.8030 15.5930 124° Southeast 538 619 37,000  Level FlightAware
07:28AM 39.7470 15.6980 125° Southeast 539 620 37,000  Level FlightAware
07:29AM 39.6860 15.8120 125° Southeast 539 620 37,000  Level FlightAware
07:29AM 39.6290 15.9200 124° Southeast 538 619 37,000  Level FlightAware
07:30AM 39.5670 16.0350 125° Southeast 537 618 37,000  Level FlightAware
07:31AM 39.5050 16.1510 125° Southeast 536 617 37,000  Level FlightAware
07:32AM 39.4600 16.2590 118° Southeast 537 618 37,000  Level FlightAware
07:32AM 39.4220 16.3900 111° Southeast 537 618 37,000  Level FlightAware
07:33AM 39.3820 16.5190 112° Southeast 537 618 37,000  Level FlightAware
07:34AM 39.3410 16.6440 113° Southeast 538 619 37,000  Level FlightAware
07:34AM 39.3010 16.7630 113° Southeast 540 621 37,000  Level FlightAware
07:35AM 39.2630 16.8710 114° Southeast 540 621 37,000  Level FlightAware
07:36AM 39.2030 17.0420 114° Southeast 538 619 37,000  Level FlightAware
07:37AM 39.1540 17.1830 114° Southeast 536 617 37,000  Level FlightAware
07:38AM 39.1130 17.3020 114° Southeast 536 617 37,000  Level FlightAware
07:38AM 39.0720 17.4180 114° Southeast 535 616 37,000  Level FlightAware
07:39AM 39.0070 17.6040 114° Southeast 536 617 37,000  Level FlightAware
07:40AM 38.9540 17.7550 114° Southeast 537 618 37,000  Level FlightAware
07:41AM 38.9090 17.8850 114° Southeast 538 619 37,000  Level FlightAware
07:42AM 38.8710 17.9900 115° Southeast 538 619 37,000  Level FlightAware
07:42AM 38.8200 18.1350 114° Southeast 539 620 37,000  Level FlightAware
07:43AM 38.7840 18.2350 115° Southeast 540 621 37,000  Level FlightAware
07:44AM 38.7400 18.3580 115° Southeast 539 620 37,000  Level FlightAware
07:44AM 38.6960 18.4790 115° Southeast 538 619 37,000  Level FlightAware
07:45AM 38.6530 18.5980 115° Southeast 537 618 37,000  Level FlightAware
07:46AM 38.6000 18.7460 115° Southeast 535 616 37,000  Level FlightAware
07:47AM 38.5520 18.8760 115° Southeast 535 616 37,000  Level FlightAware
07:47AM 38.5120 18.9930 114° Southeast 532 612 37,000  Level FlightAware
07:48AM 38.4710 19.1250 112° Southeast 535 616 37,000  Level FlightAware
07:49AM 38.4350 19.2430 111° Southeast 531 611 37,000  Level FlightAware
07:49AM 38.4000 19.3610 111° Southeast 532 612 37,000  Level FlightAware
07:50AM 38.3610 19.4940 110° East 532 612 37,000  Level FlightAware
07:51AM 38.3260 19.6110 111° Southeast 533 613 37,000  Level FlightAware
07:51AM 38.2900 19.7280 111° Southeast 536 617 37,000  Level FlightAware
07:52AM 38.2500 19.8620 111° Southeast 536 617 37,000 180 Level FlightAware
07:53AM 38.2150 19.9780 111° Southeast 537 618 37,300 720 Climbing FlightAware
07:53AM 38.1790 20.0980 111° Southeast 539 620 38,000 900 Climbing FlightAware
07:54AM 38.1430 20.2160 111° Southeast 541 623 38,500 600 Climbing FlightAware
07:55AM 38.0890 20.3940 111° Southeast 539 620 39,000 240 Climbing FlightAware
07:56AM 38.0480 20.5260 111° Southeast 536 617 39,000  Level FlightAware
07:57AM 38.0120 20.6440 111° Southeast 534 615 39,000  Level FlightAware
07:57AM 37.9760 20.7600 111° Southeast 531 611 39,000  Level FlightAware
07:58AM 37.9370 20.8890 111° Southeast 529 609 39,000  Level FlightAware
07:59AM 37.8960 21.0180 112° Southeast 527 606 39,000  Level FlightAware
07:59AM 37.8610 21.1330 111° Southeast 525 604 39,000  Level FlightAware
08:00AM 37.8240 21.2490 112° Southeast 524 603 39,000  Level FlightAware
08:01AM 37.7850 21.3740 112° Southeast 523 602 39,000  Level FlightAware
08:01AM 37.7480 21.4910 112° Southeast 523 602 39,000  Level FlightAware
08:02AM 37.7180 21.5880 111° Southeast 523 602 39,000  Level FlightAware
08:03AM 37.6710 21.7330 112° Southeast 524 603 39,000  Level FlightAware
08:04AM 37.6370 21.8410 112° Southeast 524 603 39,000  Level FlightAware
08:04AM 37.5960 21.9670 112° Southeast 526 605 39,000  Level FlightAware
08:05AM 37.5560 22.0910 112° Southeast 526 605 39,000  Level FlightAware
08:06AM 37.5170 22.2140 112° Southeast 526 605 39,000  Level FlightAware
08:06AM 37.4800 22.3290 112° Southeast 527 606 39,000  Level FlightAware
08:07AM 37.4390 22.4530 113° Southeast 526 605 39,000  Level FlightAware
08:08AM 37.4070 22.5520 112° Southeast 527 606 39,000  Level FlightAware
08:09AM 37.3620 22.6920 112° Southeast 529 609 39,000  Level FlightAware
08:09AM 37.3250 22.8050 112° Southeast 530 610 39,000  Level FlightAware
08:10AM 37.2920 22.9030 113° Southeast 530 610 39,000  Level FlightAware
08:10AM 37.2510 23.0270 113° Southeast 530 610 39,000  Level FlightAware
08:11AM 37.2170 23.1290 113° Southeast 530 610 39,000  Level FlightAware
08:12AM 37.1700 23.2670 113° Southeast 530 610 39,000  Level FlightAware
08:13AM 37.1280 23.3890 113° Southeast 530 610 39,000  Level FlightAware
08:13AM 37.0890 23.5030 113° Southeast 529 609 39,000  Level FlightAware
08:14AM 37.0490 23.6210 113° Southeast 528 608 39,000  Level FlightAware
08:15AM 37.0070 23.7420 113° Southeast 529 609 39,000  Level FlightAware
08:15AM 36.9690 23.8520 113° Southeast 528 608 39,000  Level FlightAware
08:16AM 36.9240 23.9790 114° Southeast 528 608 39,000  Level FlightAware
08:17AM 36.8850 24.0920 113° Southeast 528 608 39,000  Level FlightAware
08:18AM 36.8410 24.2210 113° Southeast 529 609 39,000  Level FlightAware
08:18AM 36.8030 24.3310 113° Southeast 529 609 39,000  Level FlightAware
08:19AM 36.7690 24.4290 113° Southeast 531 611 39,000  Level FlightAware
08:20AM 36.7250 24.5570 113° Southeast 532 612 39,000  Level FlightAware
08:20AM 36.6790 24.6860 114° Southeast 532 612 39,000  Level FlightAware
08:21AM 36.6370 24.8050 114° Southeast 532 612 39,000  Level FlightAware
08:22AM 36.5970 24.9160 114° Southeast 531 611 39,000  Level FlightAware
08:22AM 36.5530 25.0390 114° Southeast 530 610 39,000  Level FlightAware
08:23AM 36.5100 25.1570 114° Southeast 532 612 39,000  Level FlightAware
08:24AM 36.4690 25.2700 114° Southeast 533 613 39,000  Level FlightAware
08:25AM 36.4250 25.3900 114° Southeast 533 613 39,000  Level FlightAware
08:25AM 36.3850 25.5000 114° Southeast 528 608 39,000  Level FlightAware
08:26AM 36.3430 25.6120 115° Southeast 527 606 39,000  Level FlightAware
08:27AM 36.2950 25.7420 115° Southeast 532 612 39,000  Level FlightAware
08:27AM 36.2550 25.8510 114° Southeast 532 612 39,000  Level FlightAware
08:28AM 36.2140 25.9610 115° Southeast 531 611 39,000  Level FlightAware
08:29AM 36.1730 26.0690 115° Southeast 527 606 39,000  Level FlightAware
08:29AM 36.1260 26.1950 115° Southeast 531 611 39,000  Level FlightAware
08:30AM 36.0750 26.3320 115° Southeast 530 610 39,000  Level FlightAware
08:31AM 36.0240 26.4660 115° Southeast 531 611 39,000  Level FlightAware
08:32AM 35.9640 26.6200 116° Southeast 531 611 39,000  Level FlightAware
08:33AM 35.9180 26.7410 115° Southeast 531 611 39,000  Level FlightAware
08:33AM 35.8800 26.8390 116° Southeast 530 610 39,000  Level FlightAware
08:34AM 35.8340 26.9580 115° Southeast 530 610 39,000  Level FlightAware
08:35AM 35.7950 27.0580 116° Southeast 530 610 39,000  Level FlightAware
08:35AM 35.7570 27.1570 115° Southeast 530 610 39,000  Level FlightAware
08:36AM 35.7230 27.2480 115° Southeast 530 610 39,000  Level FlightAware
08:37AM 35.6630 27.3930 117° Southeast 526 605 39,000  Level FlightAware
08:38AM 35.6130 27.5200 116° Southeast 523 602 39,000  Level FlightAware
08:38AM 35.5570 27.6610 116° Southeast 521 600 39,000  Level FlightAware
08:39AM 35.5140 27.7710 116° Southeast 522 601 39,000  Level FlightAware
08:40AM 35.4630 27.8990 116° Southeast 39,000  Level FlightAware
08:41AM 35.4010 28.0510 117° Southeast 522 601 39,000  Level FlightAware
08:42AM 35.3520 28.1710 117° Southeast 521 600 39,000  Level FlightAware
08:42AM 35.3100 28.2750 116° Southeast 521 600 39,000  Level FlightAware
08:43AM 35.2650 28.3820 117° Southeast 521 600 39,000  Level FlightAware
08:44AM 35.2150 28.5050 116° Southeast 522 601 39,000  Level FlightAware
08:44AM 35.1720 28.6080 117° Southeast 523 602 39,000  Level FlightAware
08:45AM 35.1090 28.7620 117° Southeast 523 602 39,000  Level FlightAware
08:46AM 35.0470 28.9070 118° Southeast 523 602 39,000  Level FlightAware
08:47AM 35.0030 29.0130 117° Southeast 524 603 39,000  Level FlightAware
08:48AM 34.9600 29.1140 117° Southeast 524 603 39,000  Level FlightAware
08:48AM 34.9090 29.2350 117° Southeast 523 602 39,000  Level FlightAware
08:49AM 34.8640 29.3420 117° Southeast 521 600 39,000  Level FlightAware
08:51AM 34.7720 29.5590 117° Southeast 516 594 39,000  Level FlightAware
08:51AM 34.7070 29.7110 117° Southeast 507 583 39,000  Level FlightAware
08:52AM 34.6640 29.8090 118° Southeast 505 581 39,000  Level FlightAware
08:53AM 34.6130 29.9210 119° Southeast 501 577 39,000  Level FlightAware
08:54AM 34.5700 30.0150 119° Southeast 501 577 39,000  Level FlightAware
08:54AM 34.5340 30.0950 119° Southeast 501 577 39,000  Level FlightAware
08:55AM 34.4560 30.2420 123° Southeast 509 586 39,000  Level FlightAware
08:56AM 34.4070 30.3420 121° Southeast 511 588 39,000  Level FlightAware
08:56AM 34.3520 30.4570 120° Southeast 514 592 39,000  Level FlightAware
08:57AM 34.2980 30.5680 120° Southeast 516 594 39,000  Level FlightAware
08:58AM 34.2480 30.6700 121° Southeast 516 594 39,000  Level FlightAware
08:59AM 34.1980 30.7730 120° Southeast 516 594 39,000  Level FlightAware
08:59AM 34.1440 30.8810 121° Southeast 521 600 39,000  Level FlightAware
09:00AM 34.0790 31.0110 121° Southeast 518 596 39,000  Level FlightAware
09:01AM 34.0290 31.1120 121° Southeast 518 596 39,000  Level FlightAware
09:01AM 33.9790 31.2130 121° Southeast 519 597 39,000  Level FlightAware
09:02AM 33.9290 31.3150 121° Southeast 520 598 39,000  Level FlightAware
09:03AM 33.8790 31.4150 121° Southeast 521 600 39,000  Level FlightAware
09:04AM 33.8250 31.5240 121° Southeast 521 600 39,000  Level FlightAware
09:04AM 33.7710 31.6310 121° Southeast 519 597 39,000  Level FlightAware
09:05AM 33.7140 31.7450 121° Southeast 517 595 39,000  Level FlightAware
09:06AM 33.6650 31.8420 121° Southeast 515 593 39,000  Level FlightAware
09:07AM 33.5970 31.9760 121° Southeast 510 587 39,000  Level FlightAware
09:07AM 33.5480 32.0750 121° Southeast 508 585 39,000  Level FlightAware
09:08AM 33.4950 32.1790 121° Southeast 505 581 39,000  Level FlightAware
09:09AM 33.4450 32.2780 121° Southeast 505 581 39,000 -720 Level FlightAware
09:10AM 33.3730 32.4190 121° Southeast 509 586 37,900 -1,200 Descending FlightAware
09:10AM 33.3280 32.5090 121° Southeast 505 581 37,100 -660 Descending FlightAware
09:11AM 33.2810 32.6040 121° Southeast 506 582 37,000 -1,020 Descending FlightAware
09:12AM 33.2200 32.7200 122° Southeast 502 578 35,700 -1,380 Descending FlightAware
09:12AM 33.1670 32.8230 122° Southeast 499 574 35,100 -1,200 Descending FlightAware
09:13AM 33.1060 32.9420 121° Southeast 488 562 33,900 -1,800 Descending FlightAware
09:14AM 33.0530 33.0430 122° Southeast 478 550 32,200 -1,860 Descending FlightAware
09:15AM 33.0130 33.1120 125° Southeast 459 528 31,300 -2,160 Descending FlightAware
09:15AM 32.9490 33.2200 125° Southeast 483 556 29,300 -1,800 Descending FlightAware
09:16AM 32.9060 33.2950 124° Southeast 486 559 28,900 -1,440 Descending FlightAware
09:17AM 32.8360 33.4150 125° Southeast 490 564 27,300 -2,580 Descending FlightAware
09:18AM 32.7840 33.5050 124° Southeast 484 557 25,200 -3,000 Descending FlightAware
09:18AM 32.7290 33.6000 125° Southeast 472 543 23,000 -2,880 Descending FlightAware
09:19AM 32.6770 33.6890 125° Southeast 455 524 21,100 -2,820 Descending FlightAware
09:20AM 32.6360 33.7590 125° Southeast 446 513 19,500 -2,880 Descending FlightAware
09:21AM 32.5680 33.8760 125° Southeast 439 505 16,700 -2,760 Descending FlightAware
09:21AM 32.5180 33.9600 125° Southeast 422 486 14,900 -2,220 Descending FlightAware
09:22AM 32.4780 34.0280 125° Southeast 405 466 13,700 -1,440 Descending FlightAware
09:23AM 32.4350 34.1020 125° Southeast 376 433 13,100 -1,080 Descending FlightAware
09:23AM 32.4070 34.1500 125° Southeast 358 412 12,500 -1,200 Descending FlightAware
09:24AM 32.3660 34.2190 125° Southeast 316 364 11,600 -1,440 Descending FlightAware
09:25AM 32.3300 34.2810 124° Southeast 292 336 10,400 -840 Descending FlightAware
09:25AM 32.3030 34.3270 125° Southeast 292 336 10,400 -1,320 Level FlightAware
09:25AM 32.2880 34.3520 125° Southeast 277 319 9,200 -1,620 Descending FlightAware
09:26AM 32.2610 34.3990 124° Southeast 274 315 8,900 -300 Descending FlightAware
09:27AM 32.2460 34.4240 125° Southeast 274 315 8,900  Level FlightAware
09:27AM 32.2320 34.4490 124° Southeast 274 315 8,900  Level FlightAware
09:28AM 32.2100 34.4870 124° Southeast 274 315 8,900  Level FlightAware
09:30AM 32.0634 34.7498 115° Southeast  Level FlightAware Approximate
09:31AM 32.0000 34.8667 125° Southeast  Level FlightAware Approximate
09:32AM 32.0095 34.8769 125° Southeast  Level Estimated
09:33AM 32.0095 34.8769 125° Southeast  Level Estimated
09:34AM 32.0095 34.8769 125° Southeast  Level Estimated
09:35AM 32.0095 34.8769 125° Southeast  Level Estimated
09:36AM 32.0095 34.8769 125° Southeast  Level Estimated
09:37AM 32.0095 34.8769 125° Southeast  Level Estimated
09:38AM 32.0095 34.8769 125° Southeast  Level Estimated
09:39AM 32.0095 34.8769 125° Southeast  Level Estimated